createdAt,value
2022-11-18T00:00:16.513Z,8.62
2022-11-18T00:02:42.915Z,8.66
2022-11-18T00:05:09.223Z,8.73
2022-11-18T00:07:36.964Z,8.77
2022-11-18T00:10:03.451Z,8.83
2022-11-18T00:12:29.760Z,8.85
2022-11-18T00:14:56.071Z,8.89
2022-11-18T00:17:22.405Z,8.91
2022-11-18T00:19:48.688Z,8.95
2022-11-18T00:22:14.982Z,8.97
2022-11-18T00:24:42.618Z,8.98
2022-11-18T00:27:08.932Z,9.00
2022-11-18T00:29:35.258Z,9.02
2022-11-18T00:32:01.571Z,9.03
2022-11-18T00:34:27.873Z,9.03
2022-11-18T00:36:54.178Z,9.07
2022-11-18T00:39:21.259Z,9.02
2022-11-18T00:41:49.571Z,9.01
2022-11-18T00:44:15.896Z,8.99
2022-11-18T00:46:42.531Z,8.96
2022-11-18T00:49:09.280Z,8.97
2022-11-18T00:51:36.098Z,8.97
2022-11-18T00:54:02.487Z,8.98
2022-11-18T00:56:28.762Z,8.99
2022-11-18T00:58:56.595Z,9.00
2022-11-18T01:01:22.960Z,9.01
2022-11-18T01:03:49.515Z,9.02
2022-11-18T01:06:16.012Z,9.03
2022-11-18T01:08:42.382Z,9.03
2022-11-18T01:11:08.704Z,9.04
2022-11-18T01:13:35.017Z,9.05
2022-11-18T01:16:02.705Z,9.05
2022-11-18T01:18:30.863Z,9.05
2022-11-18T01:20:59.928Z,9.05
2022-11-18T01:23:26.410Z,9.05
2022-11-18T01:25:52.724Z,9.04
2022-11-18T01:28:23.566Z,9.05
2022-11-18T01:30:50.778Z,9.04
2022-11-18T01:33:18.369Z,9.04
2022-11-18T01:35:44.874Z,9.04
2022-11-18T01:38:11.735Z,9.04
2022-11-18T01:40:38.563Z,9.04
2022-11-18T01:43:09.887Z,9.04
2022-11-18T01:45:37.474Z,9.04
2022-11-18T01:48:07.347Z,9.05
2022-11-18T01:50:36.750Z,9.05
2022-11-18T01:53:04.708Z,9.06
2022-11-18T01:55:33.578Z,9.07
2022-11-18T01:58:03.268Z,9.06
2022-11-18T02:00:29.594Z,9.08
2022-11-18T02:02:56.771Z,9.09
2022-11-18T02:05:23.708Z,9.09
2022-11-18T02:07:51.347Z,9.10
2022-11-18T02:10:19.366Z,9.09
2022-11-18T02:12:45.653Z,9.10
2022-11-18T02:15:11.971Z,9.11
2022-11-18T02:17:45.357Z,9.12
2022-11-18T02:20:31.315Z,9.14
2022-11-18T02:23:16.263Z,9.16
2022-11-18T02:25:48.847Z,9.18
2022-11-18T02:28:23.821Z,9.18
2022-11-18T02:30:55.170Z,9.20
2022-11-18T02:33:23.474Z,9.18
2022-11-18T02:35:52.341Z,9.18
2022-11-18T02:38:21.848Z,9.16
2022-11-18T02:40:49.847Z,9.17
2022-11-18T02:43:18.323Z,9.16
2022-11-18T02:45:48.224Z,9.14
2022-11-18T02:48:17.664Z,9.13
2022-11-18T02:50:45.746Z,9.13
2022-11-18T02:53:13.882Z,9.15
2022-11-18T02:55:41.370Z,9.16
2022-11-18T02:58:08.683Z,9.19
2022-11-18T03:00:35.983Z,9.19
2022-11-18T03:03:20.997Z,9.19
2022-11-18T03:05:52.292Z,9.20
2022-11-18T03:08:20.783Z,9.20
2022-11-18T03:10:50.558Z,9.22
2022-11-18T03:13:20.619Z,9.23
2022-11-18T03:15:53.105Z,9.25
2022-11-18T03:18:26.375Z,9.26
2022-11-18T03:20:58.621Z,9.25
2022-11-18T03:23:27.542Z,9.26
2022-11-18T03:25:55.116Z,9.30
2022-11-18T03:28:25.728Z,9.29
2022-11-18T03:30:56.466Z,9.27
2022-11-18T03:33:26.239Z,9.31
2022-11-18T03:35:54.484Z,9.28
2022-11-18T03:38:23.099Z,9.27
2022-11-18T03:40:51.782Z,9.28
2022-11-18T03:43:21.099Z,9.27
2022-11-18T03:45:48.896Z,9.27
2022-11-18T03:48:16.364Z,9.25
2022-11-18T03:50:44.919Z,9.23
2022-11-18T03:53:13.671Z,9.21
2022-11-18T03:55:41.531Z,9.20
2022-11-18T03:58:11.825Z,9.20
2022-11-18T04:00:40.530Z,9.19
2022-11-18T04:03:06.918Z,9.19
2022-11-18T04:05:36.042Z,9.18
2022-11-18T04:08:04.828Z,9.17
2022-11-18T04:10:35.192Z,9.16
2022-11-18T04:13:06.163Z,9.17
2022-11-18T04:15:33.086Z,9.13
2022-11-18T04:17:59.705Z,9.13
2022-11-18T04:20:26.679Z,9.14
2022-11-18T04:22:52.959Z,9.13
2022-11-18T04:25:19.282Z,9.13
2022-11-18T04:27:46.899Z,9.13
2022-11-18T04:30:13.454Z,9.12
2022-11-18T04:32:39.748Z,9.12
2022-11-18T04:35:06.132Z,9.13
2022-11-18T04:37:32.449Z,9.11
2022-11-18T04:39:58.771Z,9.10
2022-11-18T04:42:25.096Z,9.10
2022-11-18T04:44:52.779Z,9.11
2022-11-18T04:47:19.167Z,9.09
2022-11-18T04:49:45.492Z,9.07
2022-11-18T04:52:11.995Z,9.05
2022-11-18T04:54:38.402Z,9.03
2022-11-18T04:57:04.720Z,9.00
2022-11-18T04:59:31.054Z,8.98
2022-11-18T05:01:59.001Z,8.94
2022-11-18T05:04:26.293Z,8.93
2022-11-18T05:06:52.960Z,8.89
2022-11-18T05:09:20.873Z,8.87
2022-11-18T05:11:47.658Z,8.83
2022-11-18T05:14:13.938Z,8.80
2022-11-18T05:16:40.283Z,8.75
2022-11-18T05:19:08.306Z,8.69
2022-11-18T05:21:34.737Z,8.64
2022-11-18T05:24:01.507Z,8.61
2022-11-18T05:26:28.229Z,8.56
2022-11-18T05:28:54.640Z,8.50
2022-11-18T05:31:20.972Z,8.47
2022-11-18T05:33:47.337Z,8.40
2022-11-18T05:36:15.950Z,8.34
2022-11-18T05:38:42.536Z,8.28
2022-11-18T05:41:09.390Z,8.24
2022-11-18T05:43:36.385Z,8.16
2022-11-18T05:46:03.161Z,8.13
2022-11-18T05:48:29.697Z,8.08
2022-11-18T05:50:55.981Z,8.01
2022-11-18T05:53:24.701Z,7.97
2022-11-18T05:55:54.360Z,7.94
2022-11-18T05:58:20.624Z,7.92
2022-11-18T06:00:48.369Z,7.92
2022-11-18T06:03:18.928Z,7.90
2022-11-18T06:05:46.903Z,7.86
2022-11-18T06:08:14.271Z,7.82
2022-11-18T06:10:43.048Z,7.77
2022-11-18T06:13:11.009Z,7.76
2022-11-18T06:15:40.077Z,7.75
2022-11-18T06:18:08.595Z,7.73
2022-11-18T06:20:36.682Z,7.70
2022-11-18T06:23:02.959Z,7.68
2022-11-18T06:25:29.482Z,7.65
2022-11-18T06:27:59.167Z,7.63
2022-11-18T06:30:25.476Z,7.61
2022-11-18T06:32:51.763Z,7.60
2022-11-18T06:35:18.276Z,7.54
2022-11-18T06:37:44.863Z,7.51
2022-11-18T06:40:11.770Z,7.49
2022-11-18T06:42:38.051Z,7.48
2022-11-18T06:45:06.295Z,7.48
2022-11-18T06:47:32.630Z,7.49
2022-11-18T06:49:58.901Z,7.47
2022-11-18T06:52:25.307Z,7.47
2022-11-18T06:54:51.624Z,7.44
2022-11-18T06:57:17.913Z,7.39
2022-11-18T06:59:44.178Z,7.35
2022-11-18T07:02:11.795Z,7.29
2022-11-18T07:04:38.137Z,7.24
2022-11-18T07:07:04.507Z,7.21
2022-11-18T07:09:30.817Z,7.22
2022-11-18T07:11:57.081Z,7.22
2022-11-18T07:14:23.610Z,7.18
2022-11-18T07:16:49.884Z,7.18
2022-11-18T07:19:17.898Z,7.17
2022-11-18T07:21:44.423Z,7.17
2022-11-18T07:24:12.336Z,7.18
2022-11-18T07:26:38.647Z,7.21
2022-11-18T07:29:05.170Z,7.26
2022-11-18T07:31:31.725Z,7.28
2022-11-18T07:33:58.058Z,7.33
2022-11-18T07:36:30.857Z,7.35
2022-11-18T07:39:01.275Z,7.38
2022-11-18T07:41:28.746Z,7.43
2022-11-18T07:44:00.267Z,7.45
2022-11-18T07:46:27.993Z,7.48
2022-11-18T07:48:55.243Z,7.50
2022-11-18T07:51:22.598Z,7.52
2022-11-18T07:53:50.438Z,7.56
2022-11-18T07:56:17.005Z,7.60
2022-11-18T07:58:43.820Z,7.64
2022-11-18T08:01:10.842Z,7.68
2022-11-18T08:03:37.482Z,7.75
2022-11-18T08:06:04.752Z,7.79
2022-11-18T08:08:31.322Z,7.86
2022-11-18T08:11:00.004Z,7.91
2022-11-18T08:13:27.032Z,7.98
2022-11-18T08:15:53.870Z,8.03
2022-11-18T08:18:20.146Z,8.09
2022-11-18T08:20:46.451Z,8.14
2022-11-18T08:23:12.766Z,8.16
2022-11-18T08:25:39.070Z,8.21
2022-11-18T08:28:06.760Z,8.28
2022-11-18T08:30:33.090Z,8.35
2022-11-18T08:32:59.398Z,8.46
2022-11-18T08:35:25.720Z,8.59
2022-11-18T08:37:52.095Z,8.67
2022-11-18T08:40:18.618Z,8.80
2022-11-18T08:42:44.888Z,8.93
2022-11-18T08:45:12.609Z,9.00
2022-11-18T08:47:39.280Z,9.11
2022-11-18T08:50:06.607Z,9.18
2022-11-18T08:52:33.185Z,9.22
2022-11-18T08:54:59.508Z,9.23
2022-11-18T08:57:25.814Z,9.27
2022-11-18T08:59:52.085Z,9.26
2022-11-18T09:02:20.575Z,9.26
2022-11-18T09:04:46.945Z,9.29
2022-11-18T09:07:13.271Z,9.32
2022-11-18T09:09:39.662Z,9.38
2022-11-18T09:12:06.279Z,9.45
2022-11-18T09:15:12.237Z,9.48
2022-11-18T09:17:20.143Z,9.54
2022-11-18T09:19:47.998Z,9.61
2022-11-18T09:22:14.589Z,9.60
2022-11-18T09:24:40.881Z,9.62
2022-11-18T09:27:12.251Z,9.63
2022-11-18T09:29:41.653Z,9.63
2022-11-18T09:32:07.937Z,9.63
2022-11-18T09:34:35.564Z,9.64
2022-11-18T09:37:03.093Z,9.69
2022-11-18T09:39:29.370Z,9.78
2022-11-18T09:42:00.989Z,9.83
2022-11-18T09:44:41.209Z,9.92
2022-11-18T09:47:11.394Z,10.02
2022-11-18T09:49:40.472Z,10.07
2022-11-18T09:52:11.310Z,10.15
2022-11-18T09:54:38.150Z,10.23
2022-11-18T09:57:11.509Z,10.28
2022-11-18T09:59:37.972Z,10.33
2022-11-18T10:02:19.952Z,10.35
2022-11-18T10:04:47.640Z,10.37
2022-11-18T10:07:16.242Z,10.40
2022-11-18T10:09:43.075Z,10.45
2022-11-18T10:12:14.701Z,10.54
2022-11-18T10:14:50.061Z,10.56
2022-11-18T10:17:23.150Z,10.60
2022-11-18T10:19:54.579Z,10.51
2022-11-18T10:22:25.097Z,10.47
2022-11-18T10:24:52.315Z,10.40
2022-11-18T10:27:18.997Z,10.34
2022-11-18T10:29:48.260Z,10.32
2022-11-18T10:32:15.703Z,10.25
2022-11-18T10:34:47.014Z,10.21
2022-11-18T10:37:28.169Z,10.15
2022-11-18T10:40:05.968Z,10.16
2022-11-18T10:42:35.360Z,10.11
2022-11-18T10:45:15.156Z,10.15
2022-11-18T10:47:41.529Z,10.14
2022-11-18T10:50:27.491Z,10.16
2022-11-18T10:52:55.145Z,10.16
2022-11-18T10:55:22.667Z,10.14
2022-11-18T10:57:51.069Z,10.12
2022-11-18T11:00:34.254Z,10.13
2022-11-18T11:03:00.718Z,10.12
2022-11-18T11:05:27.411Z,10.16
2022-11-18T11:08:29.069Z,10.17
2022-11-18T11:10:53.817Z,10.23
2022-11-18T11:13:20.569Z,10.26
2022-11-18T11:15:48.136Z,10.30
2022-11-18T11:18:18.558Z,10.35
2022-11-18T11:20:45.040Z,10.39
2022-11-18T11:23:17.832Z,10.43
2022-11-18T11:28:41.003Z,10.50
2022-11-18T11:31:14.152Z,10.52
2022-11-18T11:33:45.391Z,10.54
2022-11-18T11:36:30.262Z,10.55
2022-11-18T11:39:04.744Z,10.57
2022-11-18T11:41:37.975Z,10.60
2022-11-18T11:44:21.704Z,10.63
2022-11-18T11:46:52.145Z,10.65
2022-11-18T11:49:23.075Z,10.65
2022-11-18T11:51:53.570Z,10.67
2022-11-18T11:54:31.200Z,10.69
2022-11-18T11:56:59.774Z,10.74
2022-11-18T11:59:29.394Z,10.77
2022-11-18T12:01:59.291Z,10.80
2022-11-18T12:04:36.686Z,10.81
2022-11-18T12:07:04.109Z,10.80
2022-11-18T12:09:39.390Z,10.82
2022-11-18T12:12:09.207Z,10.85
2022-11-18T12:14:40.086Z,10.88
2022-11-18T12:17:12.181Z,10.90
2022-11-18T12:19:38.946Z,10.94
2022-11-18T12:22:05.331Z,11.00
2022-11-18T12:24:34.639Z,11.05
2022-11-18T12:27:01.780Z,11.08
2022-11-18T12:29:34.231Z,11.09
2022-11-18T12:32:01.273Z,11.11
2022-11-18T12:34:29.609Z,11.14
2022-11-18T12:36:56.374Z,11.16
2022-11-18T12:39:40.606Z,11.18
2022-11-18T12:42:29.531Z,11.17
2022-11-18T12:44:55.838Z,11.15
2022-11-18T12:47:37.026Z,11.11
2022-11-18T12:50:12.449Z,11.09
2022-11-18T12:52:52.013Z,11.05
2022-11-18T12:55:20.748Z,11.03
2022-11-18T12:57:48.361Z,11.00
2022-11-18T13:00:19.211Z,10.98
2022-11-18T13:02:51.189Z,10.94
2022-11-18T13:05:19.894Z,10.92
2022-11-18T13:07:48.868Z,10.92
2022-11-18T13:10:20.862Z,10.90
2022-11-18T13:12:49.024Z,10.89
2022-11-18T13:15:15.350Z,10.88
2022-11-18T13:17:42.136Z,10.86
2022-11-18T13:20:18.646Z,10.87
2022-11-18T13:22:49.528Z,10.87
2022-11-18T13:25:22.736Z,10.89
2022-11-18T13:27:54.120Z,10.87
2022-11-18T13:30:20.391Z,10.88
2022-11-18T13:32:47.560Z,10.88
2022-11-18T13:35:15.394Z,10.89
2022-11-18T13:37:48.521Z,10.87
2022-11-18T13:40:18.071Z,10.87
2022-11-18T13:42:44.676Z,10.86
2022-11-18T13:45:13.323Z,10.87
2022-11-18T13:47:41.657Z,10.88
2022-11-18T13:50:14.635Z,10.90
2022-11-18T13:52:43.363Z,10.91
2022-11-18T13:55:14.310Z,10.90
2022-11-18T13:57:41.137Z,10.89
2022-11-18T14:00:08.347Z,10.90
2022-11-18T14:02:40.290Z,10.92
2022-11-18T14:05:21.274Z,10.93
2022-11-18T14:08:02.995Z,10.94
2022-11-18T14:10:29.889Z,10.94
2022-11-18T14:12:57.833Z,10.92
2022-11-18T14:15:32.989Z,10.92
2022-11-18T14:18:01.836Z,10.92
2022-11-18T14:20:29.666Z,10.92
2022-11-18T14:22:57.083Z,10.90
2022-11-18T14:25:25.577Z,10.90
2022-11-18T14:27:52.437Z,10.89
2022-11-18T14:30:32.731Z,10.88
2022-11-18T14:33:17.412Z,10.85
2022-11-18T14:35:44.638Z,10.83
2022-11-18T14:38:36.714Z,10.81
2022-11-18T14:41:03.025Z,10.79
2022-11-18T14:43:29.781Z,10.78
2022-11-18T14:45:58.056Z,10.79
2022-11-18T14:48:31.123Z,10.76
2022-11-18T14:50:58.896Z,10.70
2022-11-18T14:53:25.206Z,10.63
2022-11-18T14:55:52.354Z,10.53
2022-11-18T14:58:18.682Z,10.25
2022-11-18T15:00:46.374Z,10.03
2022-11-18T15:03:12.785Z,9.87
2022-11-18T15:05:40.534Z,9.78
2022-11-18T15:08:07.247Z,9.72
2022-11-18T15:10:34.219Z,9.68
2022-11-18T15:13:00.514Z,9.68
2022-11-18T15:15:26.851Z,9.68
2022-11-18T15:17:54.087Z,9.65
2022-11-18T15:20:21.635Z,9.67
2022-11-18T15:22:49.298Z,9.67
2022-11-18T15:25:15.605Z,9.65
2022-11-18T15:27:41.901Z,9.64
2022-11-18T15:30:10.684Z,9.66
2022-11-18T15:32:38.744Z,9.66
2022-11-18T15:35:05.310Z,9.65
2022-11-18T15:37:31.592Z,9.64
2022-11-18T15:39:59.280Z,9.60
2022-11-18T15:42:25.562Z,9.60
2022-11-18T15:44:51.850Z,9.58
2022-11-18T15:47:18.127Z,9.56
2022-11-18T15:49:44.581Z,9.55
2022-11-18T15:52:10.917Z,9.53
2022-11-18T15:54:37.392Z,9.50
2022-11-18T15:57:05.037Z,9.50
2022-11-18T15:59:31.328Z,9.47
2022-11-18T16:01:57.648Z,9.43
2022-11-18T16:04:23.983Z,9.41
2022-11-18T16:06:50.295Z,9.40
2022-11-18T16:09:17.298Z,9.39
2022-11-18T16:11:43.866Z,9.38
2022-11-18T16:14:12.657Z,9.40
2022-11-18T16:16:39.493Z,9.37
2022-11-18T16:19:07.071Z,9.35
2022-11-18T16:21:34.468Z,9.34
2022-11-18T16:24:01.952Z,9.32
2022-11-18T16:26:29.284Z,9.32
2022-11-18T16:28:55.667Z,9.33
2022-11-18T16:31:23.527Z,9.30
2022-11-18T16:33:49.868Z,9.29
2022-11-18T16:36:16.681Z,9.29
2022-11-18T16:38:43.035Z,9.30
2022-11-18T16:41:09.545Z,9.32
2022-11-18T16:43:35.848Z,9.33
2022-11-18T16:46:02.135Z,9.34
2022-11-18T16:48:29.753Z,9.34
2022-11-18T16:51:02.209Z,9.33
2022-11-18T16:53:28.534Z,9.31
2022-11-18T16:56:01.992Z,9.31
2022-11-18T16:58:28.288Z,9.30
2022-11-18T17:01:18.637Z,9.31
2022-11-18T17:03:42.289Z,9.30
2022-11-18T17:06:09.045Z,9.30
2022-11-18T17:08:35.715Z,9.30
2022-11-18T17:11:05.958Z,9.29
2022-11-18T17:13:32.409Z,9.28
2022-11-18T17:15:58.708Z,9.28
2022-11-18T17:18:25.052Z,9.27
2022-11-18T17:20:52.703Z,9.29
2022-11-18T17:23:19.061Z,9.28
2022-11-18T17:25:45.424Z,9.27
2022-11-18T17:28:11.714Z,9.25
2022-11-18T17:30:38.051Z,9.24
2022-11-18T17:33:04.338Z,9.25
2022-11-18T17:35:30.647Z,9.27
2022-11-18T17:37:58.238Z,9.27
2022-11-18T17:40:24.524Z,9.26
2022-11-18T17:42:50.797Z,9.27
2022-11-18T17:45:17.144Z,9.27
2022-11-18T17:47:43.430Z,9.28
2022-11-18T17:50:09.946Z,9.30
2022-11-18T17:52:36.244Z,9.29
2022-11-18T17:55:04.042Z,9.30
2022-11-18T17:57:30.362Z,9.30
2022-11-18T17:59:56.697Z,9.31
2022-11-18T18:02:23.099Z,9.30
2022-11-18T18:04:49.436Z,9.29
2022-11-18T18:07:16.933Z,9.29
2022-11-18T18:09:43.287Z,9.30
2022-11-18T18:12:11.413Z,9.31
2022-11-18T18:14:43.145Z,9.31
2022-11-18T18:17:09.978Z,9.29
2022-11-18T18:19:36.273Z,9.29
2022-11-18T18:22:02.586Z,9.29
2022-11-18T18:24:28.876Z,9.29
2022-11-18T18:26:55.163Z,9.31
2022-11-18T18:29:22.799Z,9.31
2022-11-18T18:31:49.082Z,9.31
2022-11-18T18:34:15.436Z,9.32
2022-11-18T18:36:41.808Z,9.31
2022-11-18T18:39:08.096Z,9.32
2022-11-18T18:41:34.623Z,9.33
2022-11-18T18:44:01.209Z,9.34
2022-11-18T18:46:29.675Z,9.34
2022-11-18T18:48:57.566Z,9.35
2022-11-18T18:51:24.059Z,9.34
2022-11-18T18:53:50.384Z,9.34
2022-11-18T18:56:16.739Z,9.35
2022-11-18T18:58:43.027Z,9.35
2022-11-18T19:01:10.593Z,9.35
2022-11-18T19:03:38.593Z,9.33
2022-11-18T19:06:48.800Z,9.33
2022-11-18T19:09:02.517Z,9.31
2022-11-18T19:11:28.934Z,9.32
2022-11-18T19:13:55.309Z,9.32
2022-11-18T19:16:21.564Z,9.31
2022-11-18T19:18:49.172Z,9.31
2022-11-18T19:21:15.442Z,9.32
2022-11-18T19:23:41.711Z,9.31
2022-11-18T19:26:08.011Z,9.31
2022-11-18T19:28:34.323Z,9.31
2022-11-18T19:31:00.655Z,9.29
2022-11-18T19:33:26.934Z,9.29
2022-11-18T19:35:54.641Z,9.27
2022-11-18T19:38:20.969Z,9.28
2022-11-18T19:40:47.284Z,9.27
2022-11-18T19:43:14.990Z,9.25
2022-11-18T19:45:46.447Z,9.26
2022-11-18T19:48:12.730Z,9.26
2022-11-18T19:50:39.023Z,9.27
2022-11-18T19:53:06.669Z,9.26
2022-11-18T19:55:32.938Z,9.26
2022-11-18T19:57:59.264Z,9.26
2022-11-18T20:00:25.580Z,9.26
2022-11-18T20:02:51.920Z,9.25
2022-11-18T20:05:18.235Z,9.25
2022-11-18T20:07:44.629Z,9.24
2022-11-18T20:10:12.339Z,9.23
2022-11-18T20:12:38.680Z,9.22
2022-11-18T20:15:08.708Z,9.24
2022-11-18T20:17:35.036Z,9.24
2022-11-18T20:20:01.495Z,9.25
2022-11-18T20:22:27.872Z,9.25
2022-11-18T20:24:54.270Z,9.26
2022-11-18T20:27:23.891Z,9.27
2022-11-18T20:29:50.310Z,9.26
2022-11-18T20:32:16.678Z,9.25
2022-11-18T20:34:43.004Z,9.23
2022-11-18T20:37:09.319Z,9.22
2022-11-18T20:39:35.611Z,9.23
2022-11-18T20:42:01.888Z,9.23
2022-11-18T20:44:29.607Z,9.24
2022-11-18T20:46:55.997Z,9.23
2022-11-18T20:49:22.341Z,9.22
2022-11-18T20:51:48.671Z,9.22
2022-11-18T20:54:14.996Z,9.22
2022-11-18T20:56:41.301Z,9.21
2022-11-18T20:59:08.199Z,9.24
2022-11-18T21:01:35.950Z,9.22
2022-11-18T21:04:02.370Z,9.23
2022-11-18T21:06:29.819Z,9.22
2022-11-18T21:08:56.711Z,9.21
2022-11-18T21:11:23.508Z,9.20
2022-11-18T21:13:49.953Z,9.19
2022-11-18T21:16:16.727Z,9.18
2022-11-18T21:18:44.437Z,9.19
2022-11-18T21:21:10.882Z,9.20
2022-11-18T21:23:37.159Z,9.17
2022-11-18T21:26:03.550Z,9.17
2022-11-18T21:28:29.883Z,9.16
2022-11-18T21:30:56.250Z,9.17
2022-11-18T21:33:22.564Z,9.15
2022-11-18T21:35:50.265Z,9.16
2022-11-18T21:38:16.602Z,9.18
2022-11-18T21:40:42.903Z,9.19
2022-11-18T21:43:09.298Z,9.15
2022-11-18T21:45:35.626Z,9.14
2022-11-18T21:48:01.950Z,9.11
2022-11-18T21:50:28.262Z,9.08
2022-11-18T21:52:55.960Z,9.04
2022-11-18T21:55:22.520Z,8.95
2022-11-18T21:57:48.838Z,8.92
2022-11-18T22:00:15.501Z,8.86
2022-11-18T22:02:42.086Z,8.81
2022-11-18T22:05:08.598Z,8.77
2022-11-18T22:07:35.250Z,8.74
2022-11-18T22:10:03.060Z,8.72
2022-11-18T22:12:29.374Z,8.70
2022-11-18T22:14:55.646Z,8.70
2022-11-18T22:17:21.935Z,8.68
2022-11-18T22:19:48.230Z,8.68
2022-11-18T22:22:14.511Z,8.65
2022-11-18T22:24:40.815Z,8.64
2022-11-18T22:27:11.315Z,8.66
2022-11-18T22:29:37.999Z,8.57
2022-11-18T22:32:04.546Z,8.60
2022-11-18T22:34:30.875Z,8.55
2022-11-18T22:36:57.162Z,8.56
2022-11-18T22:39:23.458Z,8.56
2022-11-18T22:41:49.738Z,8.55
2022-11-18T22:44:17.392Z,8.53
2022-11-18T22:46:44.424Z,8.49
2022-11-18T22:49:11.582Z,8.52
2022-11-18T22:51:38.368Z,8.46
2022-11-18T22:54:36.402Z,8.43
2022-11-18T22:56:51.403Z,8.44
2022-11-18T22:59:19.220Z,8.43
2022-11-18T23:01:45.596Z,8.37
2022-11-18T23:04:11.868Z,8.33
2022-11-18T23:06:38.165Z,8.29
2022-11-18T23:09:04.509Z,8.28
2022-11-18T23:11:30.843Z,8.16
2022-11-18T23:13:57.135Z,8.13
2022-11-18T23:16:25.124Z,8.03
2022-11-18T23:18:51.462Z,7.95
2022-11-18T23:21:17.855Z,7.99
2022-11-18T23:23:44.132Z,7.91
2022-11-18T23:26:11.438Z,7.78
2022-11-18T23:28:38.013Z,7.78
2022-11-18T23:31:04.807Z,7.77
2022-11-18T23:33:32.739Z,7.76
2022-11-18T23:35:59.238Z,7.76
2022-11-18T23:38:26.387Z,7.76
2022-11-18T23:40:53.758Z,7.61
2022-11-18T23:43:20.052Z,7.64
2022-11-18T23:45:46.350Z,7.49
2022-11-18T23:48:12.629Z,7.43
2022-11-18T23:50:40.253Z,7.41
2022-11-18T23:53:06.658Z,7.37
2022-11-18T23:55:33.380Z,7.25
2022-11-18T23:57:59.695Z,7.23
